METAR Data
IDs: Format: Raw Decoded Include TAF

Data at: 0343 UTC 06 Dec 2019

METAR for:KCWI (Clinton Muni, IA, US)
Text:KCWI 060256Z AUTO 22004KT 10SM CLR 03/02 A2993 RMK AO2 SLP144 T00330022 53002
Temperature: 3.3°C ( 38°F)
Dewpoint: 2.2°C ( 36°F) [RH = 92%]
Pressure (altimeter):29.93 inches Hg (1013.6 mb) [Sea level pressure: 1014.4 mb]
Winds:from the SW (220 degrees) at 5 MPH (4 knots; 2.1 m/s)
Visibility:10 or more sm (16+ km)
Ceiling:at least 12,000 feet AGL
Clouds:sky clear below 12,000 feet AGL
QC Flag:automated observation with no human augmentation